sensor_id;sensor_type;location;lat;lon;timestamp;P1;durP1;ratioP1;P2;durP2;ratioP2
16820;SDS011;8527;49.740;6.604;2024-03-08T00:00:31;21.38;;;11.30;;
16820;SDS011;8527;49.740;6.604;2024-03-08T00:05:35;20.70;;;10.02;;
16820;SDS011;8527;49.740;6.604;2024-03-08T00:10:35;23.20;;;11.10;;
16820;SDS011;8527;49.740;6.604;2024-03-08T00:15:34;23.73;;;12.25;;
16820;SDS011;8527;49.740;6.604;2024-03-08T00:20:35;22.27;;;11.05;;
16820;SDS011;8527;49.740;6.604;2024-03-08T00:25:33;22.80;;;11.70;;
16820;SDS011;8527;49.740;6.604;2024-03-08T00:30:32;22.92;;;12.40;;
16820;SDS011;8527;49.740;6.604;2024-03-08T00:35:30;24.67;;;11.70;;
16820;SDS011;8527;49.740;6.604;2024-03-08T00:40:35;26.20;;;12.35;;
16820;SDS011;8527;49.740;6.604;2024-03-08T00:45:36;24.90;;;11.75;;
16820;SDS011;8527;49.740;6.604;2024-03-08T00:50:37;24.67;;;11.85;;
16820;SDS011;8527;49.740;6.604;2024-03-08T00:55:39;28.45;;;12.82;;
16820;SDS011;8527;49.740;6.604;2024-03-08T01:00:37;26.92;;;11.88;;
16820;SDS011;8527;49.740;6.604;2024-03-08T01:05:36;21.90;;;10.32;;
16820;SDS011;8527;49.740;6.604;2024-03-08T01:10:35;20.50;;;10.40;;
16820;SDS011;8527;49.740;6.604;2024-03-08T01:15:37;23.10;;;10.50;;
16820;SDS011;8527;49.740;6.604;2024-03-08T01:20:38;22.05;;;10.88;;
16820;SDS011;8527;49.740;6.604;2024-03-08T01:25:43;21.05;;;10.65;;
16820;SDS011;8527;49.740;6.604;2024-03-08T01:30:44;27.25;;;12.15;;
16820;SDS011;8527;49.740;6.604;2024-03-08T01:35:44;23.08;;;10.73;;
16820;SDS011;8527;49.740;6.604;2024-03-08T01:40:45;23.40;;;11.05;;
16820;SDS011;8527;49.740;6.604;2024-03-08T01:45:45;20.98;;;11.20;;
16820;SDS011;8527;49.740;6.604;2024-03-08T01:50:49;23.27;;;11.60;;
16820;SDS011;8527;49.740;6.604;2024-03-08T01:55:53;24.13;;;11.15;;
16820;SDS011;8527;49.740;6.604;2024-03-08T02:00:54;26.00;;;11.90;;
16820;SDS011;8527;49.740;6.604;2024-03-08T02:05:55;24.58;;;11.43;;
16820;SDS011;8527;49.740;6.604;2024-03-08T02:11:02;25.95;;;11.93;;
16820;SDS011;8527;49.740;6.604;2024-03-08T02:16:07;22.77;;;11.65;;
16820;SDS011;8527;49.740;6.604;2024-03-08T02:21:08;24.77;;;11.57;;
16820;SDS011;8527;49.740;6.604;2024-03-08T02:26:07;20.70;;;11.50;;
16820;SDS011;8527;49.740;6.604;2024-03-08T02:31:07;30.25;;;13.00;;
16820;SDS011;8527;49.740;6.604;2024-03-08T02:36:09;25.45;;;13.00;;
16820;SDS011;8527;49.740;6.604;2024-03-08T02:41:08;26.65;;;12.50;;
16820;SDS011;8527;49.740;6.604;2024-03-08T02:46:07;26.77;;;12.85;;
16820;SDS011;8527;49.740;6.604;2024-03-08T02:51:09;25.80;;;12.75;;
16820;SDS011;8527;49.740;6.604;2024-03-08T02:56:13;31.25;;;13.93;;
16820;SDS011;8527;49.740;6.604;2024-03-08T03:01:12;23.92;;;12.63;;
16820;SDS011;8527;49.740;6.604;2024-03-08T03:06:10;24.48;;;13.18;;
16820;SDS011;8527;49.740;6.604;2024-03-08T03:11:13;25.58;;;12.40;;
16820;SDS011;8527;49.740;6.604;2024-03-08T03:16:12;23.35;;;11.95;;
16820;SDS011;8527;49.740;6.604;2024-03-08T03:21:16;25.55;;;13.25;;
16820;SDS011;8527;49.740;6.604;2024-03-08T03:26:20;28.42;;;14.38;;
16820;SDS011;8527;49.740;6.604;2024-03-08T03:31:18;29.02;;;13.55;;
16820;SDS011;8527;49.740;6.604;2024-03-08T03:36:21;25.55;;;13.25;;
16820;SDS011;8527;49.740;6.604;2024-03-08T03:41:26;27.08;;;12.82;;
16820;SDS011;8527;49.740;6.604;2024-03-08T03:46:25;28.85;;;12.65;;
16820;SDS011;8527;49.740;6.604;2024-03-08T03:56:37;24.95;;;13.57;;
16820;SDS011;8527;49.740;6.604;2024-03-08T04:01:41;28.77;;;14.05;;
16820;SDS011;8527;49.740;6.604;2024-03-08T04:06:40;29.58;;;14.70;;
16820;SDS011;8527;49.740;6.604;2024-03-08T04:16:51;24.83;;;12.93;;
16820;SDS011;8527;49.740;6.604;2024-03-08T04:21:53;27.52;;;15.23;;
16820;SDS011;8527;49.740;6.604;2024-03-08T04:26:58;23.50;;;12.18;;
16820;SDS011;8527;49.740;6.604;2024-03-08T04:31:57;29.02;;;14.18;;
16820;SDS011;8527;49.740;6.604;2024-03-08T04:36:58;29.35;;;15.18;;
16820;SDS011;8527;49.740;6.604;2024-03-08T04:42:02;33.22;;;16.13;;
16820;SDS011;8527;49.740;6.604;2024-03-08T04:47:04;28.73;;;15.40;;
16820;SDS011;8527;49.740;6.604;2024-03-08T04:52:03;28.60;;;14.38;;
16820;SDS011;8527;49.740;6.604;2024-03-08T04:57:07;29.67;;;14.02;;
16820;SDS011;8527;49.740;6.604;2024-03-08T05:02:06;29.25;;;15.82;;
16820;SDS011;8527;49.740;6.604;2024-03-08T05:07:06;27.83;;;14.35;;
16820;SDS011;8527;49.740;6.604;2024-03-08T05:12:08;28.30;;;15.85;;
16820;SDS011;8527;49.740;6.604;2024-03-08T05:17:12;32.10;;;15.63;;
16820;SDS011;8527;49.740;6.604;2024-03-08T05:22:14;33.10;;;15.30;;
16820;SDS011;8527;49.740;6.604;2024-03-08T05:27:16;28.00;;;14.68;;
16820;SDS011;8527;49.740;6.604;2024-03-08T05:32:20;29.17;;;15.13;;
16820;SDS011;8527;49.740;6.604;2024-03-08T05:37:23;27.13;;;14.10;;
16820;SDS011;8527;49.740;6.604;2024-03-08T05:42:29;31.92;;;15.48;;
16820;SDS011;8527;49.740;6.604;2024-03-08T05:47:27;31.33;;;15.48;;
16820;SDS011;8527;49.740;6.604;2024-03-08T05:52:26;28.92;;;15.00;;
16820;SDS011;8527;49.740;6.604;2024-03-08T05:57:24;28.80;;;15.13;;
16820;SDS011;8527;49.740;6.604;2024-03-08T06:02:25;29.38;;;14.35;;
16820;SDS011;8527;49.740;6.604;2024-03-08T06:07:24;28.92;;;15.38;;
16820;SDS011;8527;49.740;6.604;2024-03-08T06:12:25;27.85;;;15.40;;
16820;SDS011;8527;49.740;6.604;2024-03-08T06:17:31;22.08;;;12.52;;
16820;SDS011;8527;49.740;6.604;2024-03-08T06:22:30;27.35;;;12.57;;
16820;SDS011;8527;49.740;6.604;2024-03-08T06:27:29;24.90;;;14.13;;
16820;SDS011;8527;49.740;6.604;2024-03-08T06:32:31;29.80;;;14.77;;
16820;SDS011;8527;49.740;6.604;2024-03-08T06:37:33;30.73;;;15.20;;
16820;SDS011;8527;49.740;6.604;2024-03-08T06:57:49;26.05;;;14.20;;
16820;SDS011;8527;49.740;6.604;2024-03-08T07:02:47;27.88;;;14.10;;
16820;SDS011;8527;49.740;6.604;2024-03-08T07:07:48;22.98;;;12.48;;
16820;SDS011;8527;49.740;6.604;2024-03-08T07:12:50;22.02;;;12.45;;
16820;SDS011;8527;49.740;6.604;2024-03-08T07:17:48;28.73;;;13.35;;
16820;SDS011;8527;49.740;6.604;2024-03-08T07:22:50;23.73;;;13.55;;
16820;SDS011;8527;49.740;6.604;2024-03-08T07:27:55;19.98;;;10.50;;
16820;SDS011;8527;49.740;6.604;2024-03-08T07:32:55;21.58;;;12.20;;
16820;SDS011;8527;49.740;6.604;2024-03-08T07:37:54;22.88;;;13.05;;
16820;SDS011;8527;49.740;6.604;2024-03-08T07:43:00;26.70;;;12.25;;
16820;SDS011;8527;49.740;6.604;2024-03-08T07:47:58;19.73;;;11.70;;
16820;SDS011;8527;49.740;6.604;2024-03-08T07:52:58;18.40;;;9.75;;
16820;SDS011;8527;49.740;6.604;2024-03-08T07:58:01;20.20;;;11.70;;
16820;SDS011;8527;49.740;6.604;2024-03-08T08:02:59;21.17;;;11.65;;
16820;SDS011;8527;49.740;6.604;2024-03-08T08:07:58;22.50;;;11.93;;
16820;SDS011;8527;49.740;6.604;2024-03-08T08:13:00;21.83;;;10.80;;
16820;SDS011;8527;49.740;6.604;2024-03-08T08:18:02;25.02;;;12.77;;
16820;SDS011;8527;49.740;6.604;2024-03-08T08:23:03;18.60;;;9.60;;
16820;SDS011;8527;49.740;6.604;2024-03-08T08:28:08;21.45;;;13.10;;
16820;SDS011;8527;49.740;6.604;2024-03-08T08:33:09;21.63;;;11.65;;
16820;SDS011;8527;49.740;6.604;2024-03-08T08:38:10;25.02;;;13.98;;
16820;SDS011;8527;49.740;6.604;2024-03-08T08:43:12;25.05;;;12.55;;
16820;SDS011;8527;49.740;6.604;2024-03-08T08:48:10;25.35;;;12.40;;
16820;SDS011;8527;49.740;6.604;2024-03-08T08:53:12;23.60;;;12.57;;
16820;SDS011;8527;49.740;6.604;2024-03-08T08:58:16;19.08;;;10.70;;
16820;SDS011;8527;49.740;6.604;2024-03-08T09:03:15;17.70;;;9.88;;
16820;SDS011;8527;49.740;6.604;2024-03-08T09:08:13;21.33;;;11.93;;
16820;SDS011;8527;49.740;6.604;2024-03-08T09:13:12;23.08;;;12.23;;
16820;SDS011;8527;49.740;6.604;2024-03-08T09:18:14;19.10;;;11.10;;
16820;SDS011;8527;49.740;6.604;2024-03-08T09:23:14;18.90;;;10.52;;
16820;SDS011;8527;49.740;6.604;2024-03-08T09:28:12;19.13;;;10.63;;
16820;SDS011;8527;49.740;6.604;2024-03-08T09:33:14;18.30;;;10.93;;
16820;SDS011;8527;49.740;6.604;2024-03-08T09:38:14;22.35;;;11.32;;
16820;SDS011;8527;49.740;6.604;2024-03-08T09:43:13;17.48;;;10.55;;
16820;SDS011;8527;49.740;6.604;2024-03-08T09:48:14;16.73;;;8.95;;
16820;SDS011;8527;49.740;6.604;2024-03-08T09:53:14;19.50;;;11.15;;
16820;SDS011;8527;49.740;6.604;2024-03-08T09:58:13;18.85;;;10.57;;
16820;SDS011;8527;49.740;6.604;2024-03-08T10:03:51;20.60;;;10.52;;
16820;SDS011;8527;49.740;6.604;2024-03-08T10:08:52;20.30;;;10.68;;
16820;SDS011;8527;49.740;6.604;2024-03-08T10:13:51;20.27;;;12.32;;
16820;SDS011;8527;49.740;6.604;2024-03-08T10:18:53;17.88;;;10.20;;
16820;SDS011;8527;49.740;6.604;2024-03-08T10:23:51;23.27;;;11.75;;
16820;SDS011;8527;49.740;6.604;2024-03-08T10:28:50;20.83;;;11.98;;
16820;SDS011;8527;49.740;6.604;2024-03-08T10:33:55;16.92;;;9.98;;
16820;SDS011;8527;49.740;6.604;2024-03-08T10:38:54;19.20;;;11.32;;
16820;SDS011;8527;49.740;6.604;2024-03-08T10:44:10;21.17;;;10.90;;
16820;SDS011;8527;49.740;6.604;2024-03-08T10:49:25;20.27;;;10.82;;
16820;SDS011;8527;49.740;6.604;2024-03-08T10:54:31;20.25;;;11.57;;
16820;SDS011;8527;49.740;6.604;2024-03-08T10:59:36;19.85;;;10.32;;
16820;SDS011;8527;49.740;6.604;2024-03-08T11:04:39;18.48;;;10.77;;
16820;SDS011;8527;49.740;6.604;2024-03-08T11:09:44;17.30;;;10.18;;
16820;SDS011;8527;49.740;6.604;2024-03-08T11:14:44;16.27;;;9.60;;
16820;SDS011;8527;49.740;6.604;2024-03-08T11:19:49;16.17;;;8.70;;
16820;SDS011;8527;49.740;6.604;2024-03-08T11:24:51;15.98;;;10.35;;
16820;SDS011;8527;49.740;6.604;2024-03-08T11:29:59;16.17;;;9.40;;
16820;SDS011;8527;49.740;6.604;2024-03-08T11:35:10;16.42;;;9.75;;
16820;SDS011;8527;49.740;6.604;2024-03-08T11:40:18;17.08;;;9.82;;
16820;SDS011;8527;49.740;6.604;2024-03-08T11:45:18;17.33;;;10.85;;
16820;SDS011;8527;49.740;6.604;2024-03-08T11:50:19;19.38;;;10.63;;
16820;SDS011;8527;49.740;6.604;2024-03-08T11:55:18;19.92;;;9.73;;
16820;SDS011;8527;49.740;6.604;2024-03-08T12:00:20;17.05;;;9.60;;
16820;SDS011;8527;49.740;6.604;2024-03-08T12:05:24;13.73;;;7.28;;
16820;SDS011;8527;49.740;6.604;2024-03-08T12:15:31;16.45;;;8.98;;
16820;SDS011;8527;49.740;6.604;2024-03-08T12:20:33;18.17;;;10.30;;
16820;SDS011;8527;49.740;6.604;2024-03-08T12:25:33;18.88;;;10.18;;
16820;SDS011;8527;49.740;6.604;2024-03-08T12:30:33;15.63;;;8.27;;
16820;SDS011;8527;49.740;6.604;2024-03-08T12:35:35;14.85;;;9.02;;
16820;SDS011;8527;49.740;6.604;2024-03-08T12:40:33;16.90;;;8.80;;
16820;SDS011;8527;49.740;6.604;2024-03-08T12:45:39;15.60;;;9.57;;
16820;SDS011;8527;49.740;6.604;2024-03-08T12:50:41;19.88;;;10.95;;
16820;SDS011;8527;49.740;6.604;2024-03-08T12:55:42;18.08;;;10.88;;
16820;SDS011;8527;49.740;6.604;2024-03-08T13:00:41;17.90;;;11.32;;
16820;SDS011;8527;49.740;6.604;2024-03-08T13:05:42;17.45;;;10.60;;
16820;SDS011;8527;49.740;6.604;2024-03-08T13:10:46;17.63;;;10.00;;
16820;SDS011;8527;49.740;6.604;2024-03-08T13:15:48;18.65;;;8.45;;
16820;SDS011;8527;49.740;6.604;2024-03-08T13:20:54;16.02;;;9.82;;
16820;SDS011;8527;49.740;6.604;2024-03-08T13:26:00;15.00;;;9.25;;
16820;SDS011;8527;49.740;6.604;2024-03-08T13:30:59;16.95;;;10.25;;
16820;SDS011;8527;49.740;6.604;2024-03-08T13:36:00;16.65;;;9.75;;
16820;SDS011;8527;49.740;6.604;2024-03-08T13:40:59;18.23;;;10.40;;
16820;SDS011;8527;49.740;6.604;2024-03-08T13:45:57;17.73;;;10.68;;
16820;SDS011;8527;49.740;6.604;2024-03-08T13:50:58;17.75;;;9.52;;
16820;SDS011;8527;49.740;6.604;2024-03-08T13:56:00;17.10;;;9.65;;
16820;SDS011;8527;49.740;6.604;2024-03-08T14:00:58;18.10;;;10.93;;
16820;SDS011;8527;49.740;6.604;2024-03-08T14:06:01;15.07;;;9.77;;
16820;SDS011;8527;49.740;6.604;2024-03-08T14:10:59;18.75;;;11.30;;
16820;SDS011;8527;49.740;6.604;2024-03-08T14:16:06;17.17;;;9.27;;
16820;SDS011;8527;49.740;6.604;2024-03-08T14:21:08;18.20;;;9.55;;
16820;SDS011;8527;49.740;6.604;2024-03-08T14:26:06;16.52;;;8.90;;
16820;SDS011;8527;49.740;6.604;2024-03-08T14:31:08;17.05;;;8.93;;
16820;SDS011;8527;49.740;6.604;2024-03-08T14:36:10;15.30;;;8.10;;
16820;SDS011;8527;49.740;6.604;2024-03-08T14:41:08;13.45;;;8.55;;
16820;SDS011;8527;49.740;6.604;2024-03-08T14:46:07;17.70;;;8.38;;
16820;SDS011;8527;49.740;6.604;2024-03-08T14:51:14;17.00;;;8.50;;
16820;SDS011;8527;49.740;6.604;2024-03-08T14:56:15;15.57;;;9.05;;
16820;SDS011;8527;49.740;6.604;2024-03-08T15:01:14;18.20;;;8.82;;
16820;SDS011;8527;49.740;6.604;2024-03-08T15:06:26;15.48;;;9.23;;
16820;SDS011;8527;49.740;6.604;2024-03-08T15:11:26;13.95;;;8.18;;
16820;SDS011;8527;49.740;6.604;2024-03-08T15:16:24;14.80;;;9.45;;
16820;SDS011;8527;49.740;6.604;2024-03-08T15:21:25;15.60;;;9.35;;
16820;SDS011;8527;49.740;6.604;2024-03-08T15:26:27;13.30;;;7.88;;
16820;SDS011;8527;49.740;6.604;2024-03-08T15:31:26;15.98;;;9.55;;
16820;SDS011;8527;49.740;6.604;2024-03-08T15:36:31;14.90;;;9.27;;
16820;SDS011;8527;49.740;6.604;2024-03-08T15:41:30;15.10;;;9.02;;
16820;SDS011;8527;49.740;6.604;2024-03-08T15:46:30;16.52;;;9.93;;
16820;SDS011;8527;49.740;6.604;2024-03-08T15:51:31;14.23;;;9.00;;
16820;SDS011;8527;49.740;6.604;2024-03-08T15:56:31;17.92;;;9.35;;
16820;SDS011;8527;49.740;6.604;2024-03-08T16:01:29;14.85;;;9.80;;
16820;SDS011;8527;49.740;6.604;2024-03-08T16:06:30;17.30;;;10.02;;
16820;SDS011;8527;49.740;6.604;2024-03-08T16:11:32;18.25;;;10.48;;
16820;SDS011;8527;49.740;6.604;2024-03-08T16:16:36;16.48;;;10.25;;
16820;SDS011;8527;49.740;6.604;2024-03-08T16:21:46;18.73;;;11.00;;
16820;SDS011;8527;49.740;6.604;2024-03-08T16:26:44;18.48;;;10.93;;
16820;SDS011;8527;49.740;6.604;2024-03-08T16:31:45;19.45;;;10.93;;
16820;SDS011;8527;49.740;6.604;2024-03-08T16:36:55;17.33;;;11.25;;
16820;SDS011;8527;49.740;6.604;2024-03-08T16:42:00;17.97;;;10.43;;
16820;SDS011;8527;49.740;6.604;2024-03-08T16:47:03;18.20;;;12.35;;
16820;SDS011;8527;49.740;6.604;2024-03-08T16:52:13;16.15;;;10.43;;
16820;SDS011;8527;49.740;6.604;2024-03-08T16:57:19;17.73;;;10.65;;
16820;SDS011;8527;49.740;6.604;2024-03-08T17:02:23;17.02;;;10.50;;
16820;SDS011;8527;49.740;6.604;2024-03-08T17:07:27;15.20;;;9.68;;
16820;SDS011;8527;49.740;6.604;2024-03-08T17:12:29;15.85;;;9.85;;
16820;SDS011;8527;49.740;6.604;2024-03-08T17:17:32;20.20;;;11.73;;
16820;SDS011;8527;49.740;6.604;2024-03-08T17:22:35;19.67;;;11.43;;
16820;SDS011;8527;49.740;6.604;2024-03-08T17:27:36;18.63;;;11.23;;
16820;SDS011;8527;49.740;6.604;2024-03-08T17:32:34;19.38;;;10.80;;
16820;SDS011;8527;49.740;6.604;2024-03-08T17:37:35;19.80;;;11.18;;
16820;SDS011;8527;49.740;6.604;2024-03-08T17:42:34;18.25;;;11.63;;
16820;SDS011;8527;49.740;6.604;2024-03-08T17:47:33;20.88;;;11.52;;
16820;SDS011;8527;49.740;6.604;2024-03-08T17:52:36;19.90;;;11.93;;
16820;SDS011;8527;49.740;6.604;2024-03-08T17:57:35;21.67;;;11.90;;
16820;SDS011;8527;49.740;6.604;2024-03-08T18:02:35;18.73;;;11.52;;
16820;SDS011;8527;49.740;6.604;2024-03-08T18:07:39;21.20;;;11.25;;
16820;SDS011;8527;49.740;6.604;2024-03-08T18:12:40;20.08;;;11.02;;
16820;SDS011;8527;49.740;6.604;2024-03-08T18:17:40;21.48;;;11.18;;
16820;SDS011;8527;49.740;6.604;2024-03-08T18:22:41;19.83;;;10.95;;
16820;SDS011;8527;49.740;6.604;2024-03-08T18:27:40;18.60;;;11.00;;
16820;SDS011;8527;49.740;6.604;2024-03-08T18:32:42;21.65;;;11.90;;
16820;SDS011;8527;49.740;6.604;2024-03-08T18:37:49;19.30;;;10.85;;
16820;SDS011;8527;49.740;6.604;2024-03-08T18:42:51;21.90;;;11.25;;
16820;SDS011;8527;49.740;6.604;2024-03-08T18:47:53;20.13;;;11.32;;
16820;SDS011;8527;49.740;6.604;2024-03-08T18:52:55;20.83;;;12.10;;
16820;SDS011;8527;49.740;6.604;2024-03-08T18:57:57;19.77;;;12.25;;
16820;SDS011;8527;49.740;6.604;2024-03-08T19:02:56;20.88;;;12.57;;
16820;SDS011;8527;49.740;6.604;2024-03-08T19:07:58;20.73;;;12.85;;
16820;SDS011;8527;49.740;6.604;2024-03-08T19:13:03;26.45;;;11.40;;
16820;SDS011;8527;49.740;6.604;2024-03-08T19:18:12;19.52;;;11.50;;
16820;SDS011;8527;49.740;6.604;2024-03-08T19:23:13;18.92;;;11.40;;
16820;SDS011;8527;49.740;6.604;2024-03-08T19:28:14;18.95;;;10.82;;
16820;SDS011;8527;49.740;6.604;2024-03-08T19:33:16;28.27;;;12.05;;
16820;SDS011;8527;49.740;6.604;2024-03-08T19:38:18;21.90;;;12.50;;
16820;SDS011;8527;49.740;6.604;2024-03-08T19:43:18;22.45;;;12.27;;
16820;SDS011;8527;49.740;6.604;2024-03-08T19:48:16;21.92;;;12.38;;
16820;SDS011;8527;49.740;6.604;2024-03-08T19:53:20;19.63;;;11.48;;
16820;SDS011;8527;49.740;6.604;2024-03-08T19:58:19;22.60;;;11.57;;
16820;SDS011;8527;49.740;6.604;2024-03-08T20:03:20;21.38;;;11.82;;
16820;SDS011;8527;49.740;6.604;2024-03-08T20:08:21;22.85;;;11.82;;
16820;SDS011;8527;49.740;6.604;2024-03-08T20:13:23;24.70;;;13.02;;
16820;SDS011;8527;49.740;6.604;2024-03-08T20:18:21;26.05;;;13.82;;
16820;SDS011;8527;49.740;6.604;2024-03-08T20:23:26;23.75;;;13.40;;
16820;SDS011;8527;49.740;6.604;2024-03-08T20:28:41;21.10;;;12.15;;
16820;SDS011;8527;49.740;6.604;2024-03-08T20:33:42;21.23;;;11.75;;
16820;SDS011;8527;49.740;6.604;2024-03-08T20:38:45;16.35;;;9.23;;
16820;SDS011;8527;49.740;6.604;2024-03-08T20:43:51;16.35;;;8.63;;
16820;SDS011;8527;49.740;6.604;2024-03-08T20:49:02;20.45;;;11.45;;
16820;SDS011;8527;49.740;6.604;2024-03-08T20:54:05;17.73;;;9.88;;
16820;SDS011;8527;49.740;6.604;2024-03-08T20:59:04;18.83;;;10.05;;
16820;SDS011;8527;49.740;6.604;2024-03-08T21:04:05;18.35;;;10.20;;
16820;SDS011;8527;49.740;6.604;2024-03-08T21:09:07;22.33;;;12.15;;
16820;SDS011;8527;49.740;6.604;2024-03-08T21:14:06;18.20;;;11.50;;
16820;SDS011;8527;49.740;6.604;2024-03-08T21:19:05;17.67;;;10.45;;
16820;SDS011;8527;49.740;6.604;2024-03-08T21:24:08;19.75;;;10.65;;
16820;SDS011;8527;49.740;6.604;2024-03-08T21:29:08;15.50;;;10.38;;
16820;SDS011;8527;49.740;6.604;2024-03-08T21:34:10;19.67;;;10.77;;
16820;SDS011;8527;49.740;6.604;2024-03-08T21:39:11;22.42;;;12.13;;
16820;SDS011;8527;49.740;6.604;2024-03-08T21:44:11;19.98;;;10.55;;
16820;SDS011;8527;49.740;6.604;2024-03-08T21:49:10;14.85;;;8.40;;
16820;SDS011;8527;49.740;6.604;2024-03-08T21:54:12;13.98;;;8.07;;
16820;SDS011;8527;49.740;6.604;2024-03-08T21:59:11;17.58;;;9.18;;
16820;SDS011;8527;49.740;6.604;2024-03-08T22:04:12;17.58;;;9.38;;
16820;SDS011;8527;49.740;6.604;2024-03-08T22:09:13;15.07;;;8.65;;
16820;SDS011;8527;49.740;6.604;2024-03-08T22:14:12;15.27;;;9.43;;
16820;SDS011;8527;49.740;6.604;2024-03-08T22:19:11;15.35;;;8.63;;
16820;SDS011;8527;49.740;6.604;2024-03-08T22:24:09;16.92;;;9.27;;
16820;SDS011;8527;49.740;6.604;2024-03-08T22:29:10;16.17;;;9.57;;
16820;SDS011;8527;49.740;6.604;2024-03-08T22:34:08;24.02;;;13.23;;
16820;SDS011;8527;49.740;6.604;2024-03-08T22:39:07;45.45;;;14.35;;
16820;SDS011;8527;49.740;6.604;2024-03-08T22:44:06;23.85;;;13.40;;
16820;SDS011;8527;49.740;6.604;2024-03-08T22:49:07;22.00;;;12.25;;
16820;SDS011;8527;49.740;6.604;2024-03-08T22:54:05;20.85;;;12.43;;
16820;SDS011;8527;49.740;6.604;2024-03-08T22:59:04;18.67;;;10.35;;
16820;SDS011;8527;49.740;6.604;2024-03-08T23:04:02;17.95;;;9.40;;
16820;SDS011;8527;49.740;6.604;2024-03-08T23:09:06;23.67;;;11.85;;
16820;SDS011;8527;49.740;6.604;2024-03-08T23:14:09;19.65;;;11.65;;
16820;SDS011;8527;49.740;6.604;2024-03-08T23:19:08;18.98;;;10.82;;
16820;SDS011;8527;49.740;6.604;2024-03-08T23:24:09;15.25;;;9.18;;
16820;SDS011;8527;49.740;6.604;2024-03-08T23:29:12;15.88;;;8.18;;
16820;SDS011;8527;49.740;6.604;2024-03-08T23:34:12;18.50;;;11.55;;
16820;SDS011;8527;49.740;6.604;2024-03-08T23:39:13;17.80;;;9.82;;
16820;SDS011;8527;49.740;6.604;2024-03-08T23:44:12;12.93;;;7.47;;
16820;SDS011;8527;49.740;6.604;2024-03-08T23:49:12;15.85;;;8.75;;
16820;SDS011;8527;49.740;6.604;2024-03-08T23:54:15;21.23;;;8.70;;
16820;SDS011;8527;49.740;6.604;2024-03-08T23:59:17;13.55;;;7.70;;
